sensor_id;sensor_type;location;lat;lon;timestamp;P1;durP1;ratioP1;P2;durP2;ratioP2
15240;SDS011;7723;52.170;9.978;2022-07-25T00:02:18;5.55;;;4.45;;
15240;SDS011;7723;52.170;9.978;2022-07-25T00:04:45;5.82;;;4.13;;
15240;SDS011;7723;52.170;9.978;2022-07-25T00:07:12;9.63;;;4.68;;
15240;SDS011;7723;52.170;9.978;2022-07-25T00:09:39;6.50;;;4.35;;
15240;SDS011;7723;52.170;9.978;2022-07-25T00:12:07;4.72;;;4.13;;
15240;SDS011;7723;52.170;9.978;2022-07-25T00:14:34;6.15;;;4.45;;
15240;SDS011;7723;52.170;9.978;2022-07-25T00:17:03;14.40;;;5.00;;
15240;SDS011;7723;52.170;9.978;2022-07-25T00:19:30;7.60;;;4.10;;
15240;SDS011;7723;52.170;9.978;2022-07-25T00:21:57;5.43;;;3.65;;
15240;SDS011;7723;52.170;9.978;2022-07-25T00:24:24;4.03;;;3.08;;
15240;SDS011;7723;52.170;9.978;2022-07-25T00:26:51;4.72;;;3.28;;
15240;SDS011;7723;52.170;9.978;2022-07-25T00:29:18;4.82;;;3.78;;
15240;SDS011;7723;52.170;9.978;2022-07-25T00:31:45;3.13;;;2.83;;
15240;SDS011;7723;52.170;9.978;2022-07-25T00:34:14;5.18;;;3.00;;
15240;SDS011;7723;52.170;9.978;2022-07-25T00:36:41;3.38;;;2.95;;
15240;SDS011;7723;52.170;9.978;2022-07-25T00:39:08;3.72;;;3.00;;
15240;SDS011;7723;52.170;9.978;2022-07-25T00:41:35;3.72;;;3.20;;
15240;SDS011;7723;52.170;9.978;2022-07-25T00:44:02;3.50;;;3.10;;
15240;SDS011;7723;52.170;9.978;2022-07-25T00:46:30;3.75;;;3.28;;
15240;SDS011;7723;52.170;9.978;2022-07-25T00:48:57;5.07;;;3.15;;
15240;SDS011;7723;52.170;9.978;2022-07-25T00:51:25;3.35;;;3.05;;
15240;SDS011;7723;52.170;9.978;2022-07-25T00:53:53;3.03;;;2.70;;
15240;SDS011;7723;52.170;9.978;2022-07-25T00:56:22;3.15;;;2.88;;
15240;SDS011;7723;52.170;9.978;2022-07-25T00:58:50;6.53;;;3.08;;
15240;SDS011;7723;52.170;9.978;2022-07-25T01:01:17;5.07;;;3.05;;
15240;SDS011;7723;52.170;9.978;2022-07-25T01:03:44;3.42;;;3.10;;
15240;SDS011;7723;52.170;9.978;2022-07-25T01:06:12;3.90;;;3.13;;
15240;SDS011;7723;52.170;9.978;2022-07-25T01:08:40;6.22;;;3.38;;
15240;SDS011;7723;52.170;9.978;2022-07-25T01:11:08;3.88;;;2.90;;
15240;SDS011;7723;52.170;9.978;2022-07-25T01:13:35;3.30;;;3.00;;
15240;SDS011;7723;52.170;9.978;2022-07-25T01:16:03;3.95;;;2.90;;
15240;SDS011;7723;52.170;9.978;2022-07-25T01:18:31;3.13;;;2.83;;
15240;SDS011;7723;52.170;9.978;2022-07-25T01:21:00;2.97;;;2.67;;
15240;SDS011;7723;52.170;9.978;2022-07-25T01:23:28;3.20;;;2.90;;
15240;SDS011;7723;52.170;9.978;2022-07-25T01:25:55;2.70;;;2.50;;
15240;SDS011;7723;52.170;9.978;2022-07-25T01:28:22;4.07;;;2.75;;
15240;SDS011;7723;52.170;9.978;2022-07-25T01:30:49;3.75;;;2.65;;
15240;SDS011;7723;52.170;9.978;2022-07-25T01:33:16;4.30;;;3.00;;
15240;SDS011;7723;52.170;9.978;2022-07-25T01:35:45;3.75;;;2.90;;
15240;SDS011;7723;52.170;9.978;2022-07-25T01:38:14;3.40;;;3.10;;
15240;SDS011;7723;52.170;9.978;2022-07-25T01:40:42;3.35;;;2.55;;
15240;SDS011;7723;52.170;9.978;2022-07-25T01:43:10;4.18;;;2.85;;
15240;SDS011;7723;52.170;9.978;2022-07-25T01:45:38;3.33;;;3.03;;
15240;SDS011;7723;52.170;9.978;2022-07-25T01:48:05;5.68;;;3.33;;
15240;SDS011;7723;52.170;9.978;2022-07-25T01:50:33;3.65;;;2.85;;
15240;SDS011;7723;52.170;9.978;2022-07-25T01:53:00;4.82;;;2.50;;
15240;SDS011;7723;52.170;9.978;2022-07-25T01:55:28;2.53;;;2.33;;
15240;SDS011;7723;52.170;9.978;2022-07-25T01:57:55;3.30;;;3.00;;
15240;SDS011;7723;52.170;9.978;2022-07-25T02:00:23;4.55;;;2.83;;
15240;SDS011;7723;52.170;9.978;2022-07-25T02:02:50;5.18;;;2.85;;
15240;SDS011;7723;52.170;9.978;2022-07-25T02:05:37;3.53;;;2.60;;
15240;SDS011;7723;52.170;9.978;2022-07-25T02:08:04;3.90;;;3.10;;
15240;SDS011;7723;52.170;9.978;2022-07-25T02:10:33;4.72;;;2.80;;
15240;SDS011;7723;52.170;9.978;2022-07-25T02:13:01;4.03;;;2.70;;
15240;SDS011;7723;52.170;9.978;2022-07-25T02:15:28;3.40;;;3.10;;
15240;SDS011;7723;52.170;9.978;2022-07-25T02:17:55;4.72;;;2.50;;
15240;SDS011;7723;52.170;9.978;2022-07-25T02:20:22;6.10;;;3.15;;
15240;SDS011;7723;52.170;9.978;2022-07-25T02:22:49;3.90;;;2.70;;
15240;SDS011;7723;52.170;9.978;2022-07-25T02:25:16;4.43;;;2.88;;
15240;SDS011;7723;52.170;9.978;2022-07-25T02:27:45;4.53;;;2.92;;
15240;SDS011;7723;52.170;9.978;2022-07-25T02:30:12;3.88;;;3.00;;
15240;SDS011;7723;52.170;9.978;2022-07-25T02:32:39;4.07;;;3.13;;
15240;SDS011;7723;52.170;9.978;2022-07-25T02:35:07;4.38;;;3.25;;
15240;SDS011;7723;52.170;9.978;2022-07-25T02:37:35;2.95;;;2.60;;
15240;SDS011;7723;52.170;9.978;2022-07-25T02:40:02;3.10;;;2.80;;
15240;SDS011;7723;52.170;9.978;2022-07-25T02:42:30;4.45;;;2.83;;
15240;SDS011;7723;52.170;9.978;2022-07-25T02:44:58;3.50;;;3.05;;
15240;SDS011;7723;52.170;9.978;2022-07-25T02:47:26;4.50;;;3.25;;
15240;SDS011;7723;52.170;9.978;2022-07-25T02:49:53;4.93;;;2.92;;
15240;SDS011;7723;52.170;9.978;2022-07-25T02:52:20;4.45;;;3.15;;
15240;SDS011;7723;52.170;9.978;2022-07-25T02:54:47;3.75;;;3.00;;
15240;SDS011;7723;52.170;9.978;2022-07-25T02:57:15;4.15;;;3.28;;
15240;SDS011;7723;52.170;9.978;2022-07-25T02:59:42;3.13;;;2.85;;
15240;SDS011;7723;52.170;9.978;2022-07-25T03:02:11;6.30;;;2.95;;
15240;SDS011;7723;52.170;9.978;2022-07-25T03:04:38;3.72;;;3.03;;
15240;SDS011;7723;52.170;9.978;2022-07-25T03:07:05;4.30;;;3.00;;
15240;SDS011;7723;52.170;9.978;2022-07-25T03:09:33;3.90;;;2.75;;
15240;SDS011;7723;52.170;9.978;2022-07-25T03:12:00;4.45;;;2.95;;
15240;SDS011;7723;52.170;9.978;2022-07-25T03:14:27;2.92;;;2.53;;
15240;SDS011;7723;52.170;9.978;2022-07-25T03:16:54;3.22;;;2.92;;
15240;SDS011;7723;52.170;9.978;2022-07-25T03:19:22;3.47;;;3.03;;
15240;SDS011;7723;52.170;9.978;2022-07-25T03:21:51;3.67;;;3.05;;
15240;SDS011;7723;52.170;9.978;2022-07-25T03:24:18;3.58;;;2.63;;
15240;SDS011;7723;52.170;9.978;2022-07-25T03:26:45;7.72;;;2.83;;
15240;SDS011;7723;52.170;9.978;2022-07-25T03:29:12;3.20;;;2.90;;
15240;SDS011;7723;52.170;9.978;2022-07-25T03:31:39;4.95;;;3.03;;
15240;SDS011;7723;52.170;9.978;2022-07-25T03:34:06;2.97;;;2.67;;
15240;SDS011;7723;52.170;9.978;2022-07-25T03:36:35;4.65;;;3.08;;
15240;SDS011;7723;52.170;9.978;2022-07-25T03:39:02;3.92;;;3.00;;
15240;SDS011;7723;52.170;9.978;2022-07-25T03:41:29;5.50;;;2.97;;
15240;SDS011;7723;52.170;9.978;2022-07-25T03:43:56;6.47;;;3.58;;
15240;SDS011;7723;52.170;9.978;2022-07-25T03:46:23;3.33;;;2.88;;
15240;SDS011;7723;52.170;9.978;2022-07-25T03:48:50;4.28;;;2.80;;
15240;SDS011;7723;52.170;9.978;2022-07-25T03:51:19;3.40;;;2.92;;
15240;SDS011;7723;52.170;9.978;2022-07-25T03:53:47;3.05;;;2.65;;
15240;SDS011;7723;52.170;9.978;2022-07-25T03:56:30;5.40;;;2.85;;
15240;SDS011;7723;52.170;9.978;2022-07-25T03:59:01;4.22;;;3.15;;
15240;SDS011;7723;52.170;9.978;2022-07-25T04:01:28;3.28;;;2.97;;
15240;SDS011;7723;52.170;9.978;2022-07-25T04:03:55;3.45;;;3.05;;
15240;SDS011;7723;52.170;9.978;2022-07-25T04:06:22;6.75;;;2.95;;
15240;SDS011;7723;52.170;9.978;2022-07-25T04:08:51;7.10;;;2.95;;
15240;SDS011;7723;52.170;9.978;2022-07-25T04:11:18;3.85;;;3.05;;
15240;SDS011;7723;52.170;9.978;2022-07-25T04:13:45;4.07;;;3.10;;
15240;SDS011;7723;52.170;9.978;2022-07-25T04:16:12;3.95;;;3.15;;
15240;SDS011;7723;52.170;9.978;2022-07-25T04:18:40;5.30;;;3.22;;
15240;SDS011;7723;52.170;9.978;2022-07-25T04:21:07;4.00;;;3.17;;
15240;SDS011;7723;52.170;9.978;2022-07-25T04:23:35;6.85;;;3.05;;
15240;SDS011;7723;52.170;9.978;2022-07-25T04:26:04;7.70;;;3.42;;
15240;SDS011;7723;52.170;9.978;2022-07-25T04:28:31;8.95;;;4.05;;
15240;SDS011;7723;52.170;9.978;2022-07-25T04:31:00;6.32;;;3.60;;
15240;SDS011;7723;52.170;9.978;2022-07-25T04:33:27;6.57;;;3.33;;
15240;SDS011;7723;52.170;9.978;2022-07-25T04:35:54;26.15;;;4.90;;
15240;SDS011;7723;52.170;9.978;2022-07-25T04:38:21;14.55;;;4.95;;
15240;SDS011;7723;52.170;9.978;2022-07-25T04:40:49;5.68;;;3.80;;
15240;SDS011;7723;52.170;9.978;2022-07-25T04:43:17;6.22;;;3.58;;
15240;SDS011;7723;52.170;9.978;2022-07-25T04:45:45;6.28;;;3.65;;
15240;SDS011;7723;52.170;9.978;2022-07-25T04:48:12;4.88;;;3.55;;
15240;SDS011;7723;52.170;9.978;2022-07-25T04:50:40;4.57;;;3.50;;
15240;SDS011;7723;52.170;9.978;2022-07-25T04:53:07;7.10;;;3.95;;
15240;SDS011;7723;52.170;9.978;2022-07-25T04:55:34;6.25;;;3.80;;
15240;SDS011;7723;52.170;9.978;2022-07-25T04:58:03;9.07;;;4.00;;
15240;SDS011;7723;52.170;9.978;2022-07-25T05:00:31;20.05;;;4.43;;
15240;SDS011;7723;52.170;9.978;2022-07-25T05:02:59;5.68;;;3.60;;
15240;SDS011;7723;52.170;9.978;2022-07-25T05:05:26;6.07;;;3.85;;
15240;SDS011;7723;52.170;9.978;2022-07-25T05:07:54;4.57;;;3.83;;
15240;SDS011;7723;52.170;9.978;2022-07-25T05:10:22;7.78;;;3.75;;
15240;SDS011;7723;52.170;9.978;2022-07-25T05:12:49;4.93;;;3.40;;
15240;SDS011;7723;52.170;9.978;2022-07-25T05:15:17;4.22;;;3.80;;
15240;SDS011;7723;52.170;9.978;2022-07-25T05:17:45;3.45;;;3.10;;
15240;SDS011;7723;52.170;9.978;2022-07-25T05:20:13;5.82;;;3.83;;
15240;SDS011;7723;52.170;9.978;2022-07-25T05:22:40;5.20;;;3.30;;
15240;SDS011;7723;52.170;9.978;2022-07-25T05:25:08;4.97;;;3.67;;
15240;SDS011;7723;52.170;9.978;2022-07-25T05:27:36;4.03;;;3.72;;
15240;SDS011;7723;52.170;9.978;2022-07-25T05:30:04;3.88;;;3.50;;
15240;SDS011;7723;52.170;9.978;2022-07-25T05:32:33;3.67;;;3.38;;
15240;SDS011;7723;52.170;9.978;2022-07-25T05:35:02;3.80;;;3.42;;
15240;SDS011;7723;52.170;9.978;2022-07-25T05:37:30;3.85;;;3.30;;
15240;SDS011;7723;52.170;9.978;2022-07-25T05:39:57;4.55;;;3.60;;
15240;SDS011;7723;52.170;9.978;2022-07-25T05:42:24;3.47;;;3.13;;
15240;SDS011;7723;52.170;9.978;2022-07-25T05:44:51;4.22;;;3.83;;
15240;SDS011;7723;52.170;9.978;2022-07-25T05:47:18;5.97;;;3.88;;
15240;SDS011;7723;52.170;9.978;2022-07-25T05:49:46;3.85;;;3.55;;
15240;SDS011;7723;52.170;9.978;2022-07-25T05:52:14;3.70;;;3.40;;
15240;SDS011;7723;52.170;9.978;2022-07-25T05:54:41;3.92;;;3.47;;
15240;SDS011;7723;52.170;9.978;2022-07-25T05:57:08;4.15;;;3.70;;
15240;SDS011;7723;52.170;9.978;2022-07-25T05:59:36;7.38;;;3.92;;
15240;SDS011;7723;52.170;9.978;2022-07-25T06:02:03;4.25;;;3.85;;
15240;SDS011;7723;52.170;9.978;2022-07-25T06:04:30;4.53;;;3.60;;
15240;SDS011;7723;52.170;9.978;2022-07-25T06:06:57;4.95;;;3.72;;
15240;SDS011;7723;52.170;9.978;2022-07-25T06:09:26;4.07;;;3.78;;
15240;SDS011;7723;52.170;9.978;2022-07-25T06:11:54;4.28;;;3.88;;
15240;SDS011;7723;52.170;9.978;2022-07-25T06:14:21;5.47;;;4.10;;
15240;SDS011;7723;52.170;9.978;2022-07-25T06:16:49;4.05;;;3.72;;
15240;SDS011;7723;52.170;9.978;2022-07-25T06:19:16;4.63;;;4.20;;
15240;SDS011;7723;52.170;9.978;2022-07-25T06:21:43;4.40;;;4.00;;
15240;SDS011;7723;52.170;9.978;2022-07-25T06:24:10;4.85;;;4.35;;
15240;SDS011;7723;52.170;9.978;2022-07-25T06:26:39;4.43;;;4.03;;
15240;SDS011;7723;52.170;9.978;2022-07-25T06:29:06;5.40;;;4.15;;
15240;SDS011;7723;52.170;9.978;2022-07-25T06:31:33;7.53;;;4.20;;
15240;SDS011;7723;52.170;9.978;2022-07-25T06:34:01;6.75;;;4.53;;
15240;SDS011;7723;52.170;9.978;2022-07-25T06:36:28;6.95;;;4.03;;
15240;SDS011;7723;52.170;9.978;2022-07-25T06:38:55;4.50;;;3.90;;
15240;SDS011;7723;52.170;9.978;2022-07-25T06:41:22;6.40;;;4.28;;
15240;SDS011;7723;52.170;9.978;2022-07-25T06:43:50;4.30;;;3.70;;
15240;SDS011;7723;52.170;9.978;2022-07-25T06:46:18;4.70;;;4.30;;
15240;SDS011;7723;52.170;9.978;2022-07-25T06:48:45;5.30;;;4.22;;
15240;SDS011;7723;52.170;9.978;2022-07-25T06:51:12;4.80;;;4.40;;
15240;SDS011;7723;52.170;9.978;2022-07-25T06:53:39;4.60;;;4.20;;
15240;SDS011;7723;52.170;9.978;2022-07-25T06:56:06;4.72;;;4.32;;
15240;SDS011;7723;52.170;9.978;2022-07-25T06:58:34;5.68;;;3.92;;
15240;SDS011;7723;52.170;9.978;2022-07-25T07:01:02;4.63;;;4.22;;
15240;SDS011;7723;52.170;9.978;2022-07-25T07:03:30;4.68;;;4.28;;
15240;SDS011;7723;52.170;9.978;2022-07-25T07:06:02;4.97;;;4.40;;
15240;SDS011;7723;52.170;9.978;2022-07-25T07:08:29;5.35;;;4.85;;
15240;SDS011;7723;52.170;9.978;2022-07-25T07:10:56;5.13;;;4.63;;
15240;SDS011;7723;52.170;9.978;2022-07-25T07:13:23;4.65;;;4.25;;
15240;SDS011;7723;52.170;9.978;2022-07-25T07:15:50;5.53;;;4.25;;
15240;SDS011;7723;52.170;9.978;2022-07-25T07:18:19;6.22;;;4.97;;
15240;SDS011;7723;52.170;9.978;2022-07-25T07:20:46;6.90;;;4.65;;
15240;SDS011;7723;52.170;9.978;2022-07-25T07:23:14;10.00;;;4.90;;
15240;SDS011;7723;52.170;9.978;2022-07-25T07:25:41;5.72;;;5.22;;
15240;SDS011;7723;52.170;9.978;2022-07-25T07:28:09;5.82;;;5.32;;
15240;SDS011;7723;52.170;9.978;2022-07-25T07:30:37;6.20;;;5.40;;
15240;SDS011;7723;52.170;9.978;2022-07-25T07:33:04;5.53;;;5.05;;
15240;SDS011;7723;52.170;9.978;2022-07-25T07:35:32;7.70;;;5.40;;
15240;SDS011;7723;52.170;9.978;2022-07-25T07:38:00;6.30;;;5.45;;
15240;SDS011;7723;52.170;9.978;2022-07-25T07:40:27;5.18;;;4.68;;
15240;SDS011;7723;52.170;9.978;2022-07-25T07:42:54;6.38;;;5.07;;
15240;SDS011;7723;52.170;9.978;2022-07-25T07:45:25;6.13;;;5.63;;
15240;SDS011;7723;52.170;9.978;2022-07-25T07:47:52;5.63;;;5.07;;
15240;SDS011;7723;52.170;9.978;2022-07-25T07:50:21;6.15;;;5.55;;
15240;SDS011;7723;52.170;9.978;2022-07-25T07:52:51;7.32;;;5.18;;
15240;SDS011;7723;52.170;9.978;2022-07-25T07:55:19;6.43;;;5.30;;
15240;SDS011;7723;52.170;9.978;2022-07-25T07:58:04;6.15;;;5.38;;
15240;SDS011;7723;52.170;9.978;2022-07-25T08:00:31;5.68;;;5.18;;
15240;SDS011;7723;52.170;9.978;2022-07-25T08:03:00;5.82;;;5.30;;
15240;SDS011;7723;52.170;9.978;2022-07-25T08:05:30;5.18;;;4.78;;
15240;SDS011;7723;52.170;9.978;2022-07-25T08:08:00;6.53;;;5.68;;
15240;SDS011;7723;52.170;9.978;2022-07-25T08:10:28;5.70;;;5.20;;
15240;SDS011;7723;52.170;9.978;2022-07-25T08:12:56;6.20;;;5.30;;
15240;SDS011;7723;52.170;9.978;2022-07-25T08:15:25;5.70;;;4.97;;
15240;SDS011;7723;52.170;9.978;2022-07-25T08:17:52;6.90;;;5.47;;
15240;SDS011;7723;52.170;9.978;2022-07-25T08:20:20;6.07;;;5.47;;
15240;SDS011;7723;52.170;9.978;2022-07-25T08:22:48;5.85;;;5.28;;
15240;SDS011;7723;52.170;9.978;2022-07-25T08:25:17;6.00;;;5.40;;
15240;SDS011;7723;52.170;9.978;2022-07-25T08:27:46;6.25;;;4.85;;
15240;SDS011;7723;52.170;9.978;2022-07-25T08:30:14;6.10;;;5.60;;
15240;SDS011;7723;52.170;9.978;2022-07-25T08:32:46;5.63;;;5.13;;
15240;SDS011;7723;52.170;9.978;2022-07-25T08:35:14;5.93;;;5.43;;
15240;SDS011;7723;52.170;9.978;2022-07-25T08:37:42;5.75;;;5.25;;
15240;SDS011;7723;52.170;9.978;2022-07-25T08:40:10;5.60;;;5.10;;
15240;SDS011;7723;52.170;9.978;2022-07-25T08:42:39;5.80;;;5.30;;
15240;SDS011;7723;52.170;9.978;2022-07-25T08:45:07;6.03;;;5.05;;
15240;SDS011;7723;52.170;9.978;2022-07-25T08:47:38;5.82;;;5.20;;
15240;SDS011;7723;52.170;9.978;2022-07-25T08:50:07;6.18;;;5.57;;
15240;SDS011;7723;52.170;9.978;2022-07-25T08:52:35;6.10;;;5.60;;
15240;SDS011;7723;52.170;9.978;2022-07-25T08:55:04;6.55;;;5.80;;
15240;SDS011;7723;52.170;9.978;2022-07-25T08:57:33;5.90;;;5.40;;
15240;SDS011;7723;52.170;9.978;2022-07-25T09:00:04;6.38;;;5.30;;
15240;SDS011;7723;52.170;9.978;2022-07-25T09:02:33;7.30;;;5.28;;
15240;SDS011;7723;52.170;9.978;2022-07-25T09:05:00;6.03;;;5.45;;
15240;SDS011;7723;52.170;9.978;2022-07-25T09:07:30;6.10;;;5.50;;
15240;SDS011;7723;52.170;9.978;2022-07-25T09:09:59;6.70;;;5.53;;
15240;SDS011;7723;52.170;9.978;2022-07-25T09:12:38;7.15;;;6.05;;
15240;SDS011;7723;52.170;9.978;2022-07-25T09:15:07;5.70;;;5.20;;
15240;SDS011;7723;52.170;9.978;2022-07-25T09:17:35;6.57;;;5.82;;
15240;SDS011;7723;52.170;9.978;2022-07-25T09:20:02;6.70;;;6.10;;
15240;SDS011;7723;52.170;9.978;2022-07-25T09:22:41;6.70;;;6.13;;
15240;SDS011;7723;52.170;9.978;2022-07-25T09:25:18;6.38;;;5.78;;
15240;SDS011;7723;52.170;9.978;2022-07-25T09:27:46;6.43;;;5.93;;
15240;SDS011;7723;52.170;9.978;2022-07-25T09:30:15;6.30;;;5.80;;
15240;SDS011;7723;52.170;9.978;2022-07-25T09:32:43;6.53;;;5.82;;
15240;SDS011;7723;52.170;9.978;2022-07-25T09:35:10;6.47;;;5.88;;
15240;SDS011;7723;52.170;9.978;2022-07-25T09:37:38;9.57;;;6.40;;
15240;SDS011;7723;52.170;9.978;2022-07-25T09:40:14;6.60;;;5.90;;
15240;SDS011;7723;52.170;9.978;2022-07-25T09:42:49;6.55;;;5.95;;
15240;SDS011;7723;52.170;9.978;2022-07-25T09:45:18;6.25;;;5.68;;
15240;SDS011;7723;52.170;9.978;2022-07-25T09:47:52;6.50;;;5.90;;
15240;SDS011;7723;52.170;9.978;2022-07-25T09:50:20;8.85;;;6.60;;
15240;SDS011;7723;52.170;9.978;2022-07-25T09:52:49;8.32;;;5.75;;
15240;SDS011;7723;52.170;9.978;2022-07-25T09:55:16;7.05;;;6.35;;
15240;SDS011;7723;52.170;9.978;2022-07-25T09:57:44;7.32;;;6.53;;
15240;SDS011;7723;52.170;9.978;2022-07-25T10:00:14;7.10;;;6.03;;
15240;SDS011;7723;52.170;9.978;2022-07-25T10:02:51;6.30;;;5.70;;
15240;SDS011;7723;52.170;9.978;2022-07-25T10:05:35;6.47;;;5.95;;
15240;SDS011;7723;52.170;9.978;2022-07-25T10:08:14;7.90;;;6.55;;
15240;SDS011;7723;52.170;9.978;2022-07-25T10:10:43;9.75;;;6.47;;
15240;SDS011;7723;52.170;9.978;2022-07-25T10:13:11;7.00;;;6.30;;
15240;SDS011;7723;52.170;9.978;2022-07-25T10:15:43;6.80;;;5.93;;
15240;SDS011;7723;52.170;9.978;2022-07-25T10:18:13;6.85;;;6.05;;
15240;SDS011;7723;52.170;9.978;2022-07-25T10:20:41;6.53;;;5.65;;
15240;SDS011;7723;52.170;9.978;2022-07-25T10:23:15;7.95;;;5.95;;
15240;SDS011;7723;52.170;9.978;2022-07-25T10:25:57;6.60;;;5.90;;
15240;SDS011;7723;52.170;9.978;2022-07-25T10:28:39;6.47;;;5.88;;
15240;SDS011;7723;52.170;9.978;2022-07-25T10:31:15;6.72;;;6.13;;
15240;SDS011;7723;52.170;9.978;2022-07-25T10:33:48;6.30;;;5.70;;
15240;SDS011;7723;52.170;9.978;2022-07-25T10:36:17;7.97;;;6.05;;
15240;SDS011;7723;52.170;9.978;2022-07-25T10:38:45;6.75;;;6.15;;
15240;SDS011;7723;52.170;9.978;2022-07-25T10:41:14;6.43;;;5.82;;
15240;SDS011;7723;52.170;9.978;2022-07-25T10:43:42;6.60;;;5.90;;
15240;SDS011;7723;52.170;9.978;2022-07-25T10:46:11;7.72;;;5.32;;
15240;SDS011;7723;52.170;9.978;2022-07-25T10:48:39;6.03;;;5.53;;
15240;SDS011;7723;52.170;9.978;2022-07-25T10:51:09;6.75;;;5.95;;
15240;SDS011;7723;52.170;9.978;2022-07-25T10:53:38;6.50;;;5.90;;
15240;SDS011;7723;52.170;9.978;2022-07-25T10:56:12;6.20;;;5.60;;
15240;SDS011;7723;52.170;9.978;2022-07-25T10:58:40;6.07;;;5.40;;
15240;SDS011;7723;52.170;9.978;2022-07-25T11:01:11;6.50;;;5.43;;
15240;SDS011;7723;52.170;9.978;2022-07-25T11:03:40;5.82;;;5.22;;
15240;SDS011;7723;52.170;9.978;2022-07-25T11:06:11;5.43;;;4.93;;
15240;SDS011;7723;52.170;9.978;2022-07-25T11:08:39;6.90;;;5.53;;
15240;SDS011;7723;52.170;9.978;2022-07-25T11:11:07;6.60;;;4.72;;
15240;SDS011;7723;52.170;9.978;2022-07-25T11:13:35;4.70;;;4.30;;
15240;SDS011;7723;52.170;9.978;2022-07-25T11:16:03;4.97;;;4.57;;
15240;SDS011;7723;52.170;9.978;2022-07-25T11:18:35;5.22;;;4.72;;
15240;SDS011;7723;52.170;9.978;2022-07-25T11:21:05;5.47;;;4.97;;
15240;SDS011;7723;52.170;9.978;2022-07-25T11:23:36;6.47;;;5.32;;
15240;SDS011;7723;52.170;9.978;2022-07-25T11:26:06;5.75;;;5.25;;
15240;SDS011;7723;52.170;9.978;2022-07-25T11:28:40;5.45;;;4.95;;
15240;SDS011;7723;52.170;9.978;2022-07-25T11:31:09;5.38;;;4.88;;
15240;SDS011;7723;52.170;9.978;2022-07-25T11:33:37;5.45;;;4.95;;
15240;SDS011;7723;52.170;9.978;2022-07-25T11:36:06;6.03;;;5.43;;
15240;SDS011;7723;52.170;9.978;2022-07-25T11:38:36;5.68;;;5.18;;
15240;SDS011;7723;52.170;9.978;2022-07-25T11:41:04;5.97;;;5.40;;
15240;SDS011;7723;52.170;9.978;2022-07-25T11:43:32;6.07;;;5.47;;
15240;SDS011;7723;52.170;9.978;2022-07-25T11:46:00;5.60;;;5.10;;
15240;SDS011;7723;52.170;9.978;2022-07-25T11:48:30;5.88;;;5.32;;
15240;SDS011;7723;52.170;9.978;2022-07-25T11:51:06;5.78;;;5.22;;
15240;SDS011;7723;52.170;9.978;2022-07-25T11:53:39;6.20;;;5.47;;
15240;SDS011;7723;52.170;9.978;2022-07-25T11:56:15;6.82;;;5.60;;
15240;SDS011;7723;52.170;9.978;2022-07-25T11:58:48;6.90;;;5.50;;
15240;SDS011;7723;52.170;9.978;2022-07-25T12:01:23;5.85;;;5.30;;
15240;SDS011;7723;52.170;9.978;2022-07-25T12:03:50;6.15;;;5.55;;
15240;SDS011;7723;52.170;9.978;2022-07-25T12:06:17;5.97;;;5.47;;
15240;SDS011;7723;52.170;9.978;2022-07-25T12:08:46;6.05;;;5.55;;
15240;SDS011;7723;52.170;9.978;2022-07-25T12:11:20;6.45;;;5.82;;
15240;SDS011;7723;52.170;9.978;2022-07-25T12:13:48;6.25;;;5.68;;
15240;SDS011;7723;52.170;9.978;2022-07-25T12:16:16;6.97;;;5.80;;
15240;SDS011;7723;52.170;9.978;2022-07-25T12:18:43;6.60;;;6.00;;
15240;SDS011;7723;52.170;9.978;2022-07-25T12:21:10;8.40;;;6.10;;
15240;SDS011;7723;52.170;9.978;2022-07-25T12:23:38;6.45;;;5.85;;
15240;SDS011;7723;52.170;9.978;2022-07-25T12:26:07;6.75;;;6.13;;
15240;SDS011;7723;52.170;9.978;2022-07-25T12:28:38;7.03;;;5.85;;
15240;SDS011;7723;52.170;9.978;2022-07-25T12:31:05;6.10;;;5.57;;
15240;SDS011;7723;52.170;9.978;2022-07-25T12:33:34;7.18;;;6.13;;
15240;SDS011;7723;52.170;9.978;2022-07-25T12:36:01;6.05;;;5.55;;
15240;SDS011;7723;52.170;9.978;2022-07-25T12:38:29;6.57;;;5.97;;
15240;SDS011;7723;52.170;9.978;2022-07-25T12:40:56;7.43;;;5.93;;
15240;SDS011;7723;52.170;9.978;2022-07-25T12:43:24;5.97;;;5.40;;
15240;SDS011;7723;52.170;9.978;2022-07-25T12:45:51;7.05;;;5.90;;
15240;SDS011;7723;52.170;9.978;2022-07-25T12:48:18;6.82;;;6.22;;
15240;SDS011;7723;52.170;9.978;2022-07-25T12:50:45;6.68;;;5.70;;
15240;SDS011;7723;52.170;9.978;2022-07-25T12:53:13;6.35;;;5.75;;
15240;SDS011;7723;52.170;9.978;2022-07-25T12:55:40;6.20;;;5.53;;
15240;SDS011;7723;52.170;9.978;2022-07-25T12:58:07;7.28;;;5.78;;
15240;SDS011;7723;52.170;9.978;2022-07-25T13:00:36;6.28;;;5.68;;
15240;SDS011;7723;52.170;9.978;2022-07-25T13:03:03;6.13;;;5.60;;
15240;SDS011;7723;52.170;9.978;2022-07-25T13:05:30;6.72;;;6.07;;
15240;SDS011;7723;52.170;9.978;2022-07-25T13:07:57;6.50;;;5.80;;
15240;SDS011;7723;52.170;9.978;2022-07-25T13:10:24;6.13;;;5.55;;
15240;SDS011;7723;52.170;9.978;2022-07-25T13:12:51;7.18;;;5.63;;
15240;SDS011;7723;52.170;9.978;2022-07-25T13:15:19;7.05;;;6.40;;
15240;SDS011;7723;52.170;9.978;2022-07-25T13:17:49;7.30;;;5.78;;
15240;SDS011;7723;52.170;9.978;2022-07-25T13:20:16;8.07;;;5.85;;
15240;SDS011;7723;52.170;9.978;2022-07-25T13:22:43;5.88;;;5.38;;
15240;SDS011;7723;52.170;9.978;2022-07-25T13:25:10;6.93;;;5.82;;
15240;SDS011;7723;52.170;9.978;2022-07-25T13:27:37;6.63;;;5.53;;
15240;SDS011;7723;52.170;9.978;2022-07-25T13:30:05;6.00;;;5.40;;
15240;SDS011;7723;52.170;9.978;2022-07-25T13:32:33;6.70;;;6.00;;
15240;SDS011;7723;52.170;9.978;2022-07-25T13:35:02;6.18;;;5.55;;
15240;SDS011;7723;52.170;9.978;2022-07-25T13:37:30;5.70;;;5.10;;
15240;SDS011;7723;52.170;9.978;2022-07-25T13:39:58;6.47;;;5.88;;
15240;SDS011;7723;52.170;9.978;2022-07-25T13:42:25;7.03;;;6.07;;
15240;SDS011;7723;52.170;9.978;2022-07-25T13:44:52;7.15;;;5.43;;
15240;SDS011;7723;52.170;9.978;2022-07-25T13:47:19;7.25;;;5.53;;
15240;SDS011;7723;52.170;9.978;2022-07-25T13:49:46;7.75;;;6.07;;
15240;SDS011;7723;52.170;9.978;2022-07-25T13:52:15;8.75;;;5.72;;
15240;SDS011;7723;52.170;9.978;2022-07-25T13:54:42;6.20;;;5.60;;
15240;SDS011;7723;52.170;9.978;2022-07-25T13:57:09;6.60;;;5.93;;
15240;SDS011;7723;52.170;9.978;2022-07-25T13:59:36;7.70;;;5.80;;
15240;SDS011;7723;52.170;9.978;2022-07-25T14:02:03;6.40;;;5.75;;
15240;SDS011;7723;52.170;9.978;2022-07-25T14:04:30;5.88;;;5.30;;
15240;SDS011;7723;52.170;9.978;2022-07-25T14:06:58;10.40;;;6.15;;
15240;SDS011;7723;52.170;9.978;2022-07-25T14:09:27;14.27;;;6.07;;
15240;SDS011;7723;52.170;9.978;2022-07-25T14:11:54;7.82;;;6.95;;
15240;SDS011;7723;52.170;9.978;2022-07-25T14:14:21;7.97;;;6.28;;
15240;SDS011;7723;52.170;9.978;2022-07-25T14:16:49;7.63;;;5.85;;
15240;SDS011;7723;52.170;9.978;2022-07-25T14:19:17;6.60;;;5.82;;
15240;SDS011;7723;52.170;9.978;2022-07-25T14:21:44;7.32;;;6.30;;
15240;SDS011;7723;52.170;9.978;2022-07-25T14:24:11;7.05;;;6.43;;
15240;SDS011;7723;52.170;9.978;2022-07-25T14:26:40;7.05;;;6.40;;
15240;SDS011;7723;52.170;9.978;2022-07-25T14:29:07;10.45;;;6.25;;
15240;SDS011;7723;52.170;9.978;2022-07-25T14:31:36;6.97;;;6.22;;
15240;SDS011;7723;52.170;9.978;2022-07-25T14:34:04;6.97;;;6.28;;
15240;SDS011;7723;52.170;9.978;2022-07-25T14:36:32;6.50;;;5.90;;
15240;SDS011;7723;52.170;9.978;2022-07-25T14:39:00;6.60;;;5.88;;
15240;SDS011;7723;52.170;9.978;2022-07-25T14:41:28;7.35;;;5.80;;
15240;SDS011;7723;52.170;9.978;2022-07-25T14:43:56;6.32;;;5.50;;
15240;SDS011;7723;52.170;9.978;2022-07-25T14:46:23;7.60;;;6.13;;
15240;SDS011;7723;52.170;9.978;2022-07-25T14:48:50;7.15;;;6.07;;
15240;SDS011;7723;52.170;9.978;2022-07-25T14:51:18;7.55;;;6.85;;
15240;SDS011;7723;52.170;9.978;2022-07-25T14:53:46;7.38;;;6.68;;
15240;SDS011;7723;52.170;9.978;2022-07-25T14:56:13;11.07;;;7.03;;
15240;SDS011;7723;52.170;9.978;2022-07-25T14:58:40;8.85;;;6.55;;
15240;SDS011;7723;52.170;9.978;2022-07-25T15:01:09;7.20;;;6.50;;
15240;SDS011;7723;52.170;9.978;2022-07-25T15:03:36;7.45;;;6.75;;
15240;SDS011;7723;52.170;9.978;2022-07-25T15:06:05;8.30;;;6.72;;
15240;SDS011;7723;52.170;9.978;2022-07-25T15:08:35;6.90;;;6.30;;